Time;durP1;ratioP1;P1;durP2;ratioP2;P2;SDS_P1;SDS_P2;PMS_P1;PMS_P2;Temp;Humidity;BMP_temperature;BMP_pressure;BME280_temperature;BME280_humidity;BME280_pressure;Samples;Min_cycle;Max_cycle;Signal;HPM_P1;HPM_P2
2022/10/27 00:00:14;;;;;;;25.80;15.98;;;19.50;93.70;;;;;;6369269;22;20030;-83
2022/10/27 00:02:40;;;;;;;23.55;15.48;;;19.60;93.70;;;;;;6341672;22;20094;-82
2022/10/27 00:05:06;;;;;;;23.88;16.52;;;19.60;93.70;;;;;;6370039;22;20002;-82
2022/10/27 00:07:34;;;;;;;22.92;16.48;;;19.60;93.70;;;;;;6370261;22;20009;-83
2022/10/27 00:10:00;;;;;;;24.27;16.20;;;19.60;93.60;;;;;;6369457;22;20002;-82
2022/10/27 00:12:28;;;;;;;28.67;16.67;;;19.60;93.60;;;;;;6370101;22;20009;-83
2022/10/27 00:14:53;;;;;;;25.17;17.10;;;19.70;93.70;;;;;;6370043;22;20003;-82
2022/10/27 00:17:19;;;;;;;24.08;16.70;;;19.70;93.70;;;;;;6370238;22;20021;-82
2022/10/27 00:19:45;;;;;;;25.13;16.58;;;19.70;93.60;;;;;;6370148;22;20006;-83
2022/10/27 00:22:10;;;;;;;25.08;16.83;;;19.70;93.60;;;;;;6371073;22;20002;-82
2022/10/27 00:24:36;;;;;;;26.52;15.98;;;19.70;93.60;;;;;;6370137;22;19995;-83
2022/10/27 00:27:02;;;;;;;22.77;15.95;;;19.70;93.50;;;;;;6370498;22;19999;-83
2022/10/27 00:29:27;;;;;;;27.15;17.23;;;19.70;93.50;;;;;;6369038;22;19995;-83
2022/10/27 00:31:53;;;;;;;25.42;16.75;;;19.70;93.50;;;;;;6369942;22;20006;-83
2022/10/27 00:34:19;;;;;;;27.75;17.13;;;19.70;93.50;;;;;;6370225;22;20006;-83
2022/10/27 00:36:44;;;;;;;23.55;17.00;;;19.60;93.40;;;;;;6370485;22;20476;-83
2022/10/27 00:39:10;;;;;;;25.20;17.40;;;19.70;93.40;;;;;;6342806;22;20006;-83
2022/10/27 00:41:39;;;;;;;24.35;16.05;;;19.60;93.30;;;;;;6370609;22;19998;-83
2022/10/27 00:44:40;;;;;;;26.65;17.23;;;19.60;93.30;;;;;;6369559;22;20073;-82
2022/10/27 00:47:08;;;;;;;26.33;17.10;;;19.60;93.30;;;;;;6369042;22;19998;-81
2022/10/27 00:49:58;;;;;;;27.65;18.42;;;19.60;93.30;;;;;;6371281;22;20026;-81
2022/10/27 00:52:24;;;;;;;26.48;16.55;;;19.60;93.30;;;;;;6370741;22;20366;-85
2022/10/27 00:54:50;;;;;;;31.40;17.83;;;19.60;93.20;;;;;;6342180;22;20002;-84
2022/10/27 00:57:16;;;;;;;29.98;17.60;;;19.60;93.30;;;;;;6369568;22;20365;-83
2022/10/27 00:59:42;;;;;;;26.33;17.17;;;19.60;93.30;;;;;;6370844;22;20037;-84
2022/10/27 01:02:09;;;;;;;27.52;17.63;;;19.60;93.30;;;;;;6370276;22;20006;-84
2022/10/27 01:04:43;;;;;;;26.85;16.80;;;19.60;93.30;;;;;;6370582;22;20010;-83
2022/10/27 01:07:12;;;;;;;24.63;17.17;;;19.50;93.30;;;;;;6370489;22;20006;-83
2022/10/27 01:09:40;;;;;;;25.42;16.38;;;19.50;93.30;;;;;;6369449;22;20134;-83
2022/10/27 01:12:05;;;;;;;26.10;17.25;;;19.60;93.30;;;;;;6370625;22;20003;-83
2022/10/27 01:14:31;;;;;;;25.90;17.27;;;19.50;93.20;;;;;;6370053;22;20009;-83
2022/10/27 01:17:02;;;;;;;27.08;17.13;;;19.50;93.20;;;;;;6369675;22;20009;-83
2022/10/27 01:19:49;;;;;;;26.67;16.00;;;19.50;93.20;;;;;;6369254;22;20466;-84
2022/10/27 01:22:20;;;;;;;25.95;16.40;;;19.50;93.10;;;;;;6370811;22;20472;-83
2022/10/27 01:24:57;;;;;;;25.58;17.58;;;19.50;93.10;;;;;;6370121;22;20400;-83
2022/10/27 01:27:53;;;;;;;26.13;16.48;;;19.50;93.10;;;;;;6369498;22;19994;-82
2022/10/27 01:30:22;;;;;;;23.73;16.50;;;19.50;93.10;;;;;;6369320;22;20007;-83
2022/10/27 01:33:13;;;;;;;22.80;15.70;;;19.50;93.10;;;;;;6369470;22;20028;-83
2022/10/27 01:35:57;;;;;;;24.92;15.68;;;19.40;93.00;;;;;;6369680;22;20652;-83
2022/10/27 01:38:30;;;;;;;23.23;15.75;;;19.40;93.00;;;;;;6370093;22;20006;-82
2022/10/27 01:41:06;;;;;;;21.92;15.15;;;19.40;93.00;;;;;;6368935;22;20059;-82
2022/10/27 01:43:33;;;;;;;26.58;17.00;;;19.40;93.00;;;;;;6369378;22;19998;-82
2022/10/27 01:46:02;;;;;;;25.27;16.13;;;19.40;92.90;;;;;;6368373;22;20028;-81
2022/10/27 01:48:31;;;;;;;24.67;15.93;;;19.40;92.90;;;;;;6369312;22;19998;-83
2022/10/27 01:50:57;;;;;;;22.85;16.17;;;19.40;92.90;;;;;;6369539;22;20003;-82
2022/10/27 01:53:22;;;;;;;22.92;15.50;;;19.40;92.90;;;;;;6370293;22;20051;-81
2022/10/27 01:56:04;;;;;;;23.02;16.20;;;19.40;92.90;;;;;;6369368;22;20059;-82
2022/10/27 01:58:30;;;;;;;25.77;15.18;;;19.30;92.80;;;;;;6340993;22;20312;-82
2022/10/27 02:01:28;;;;;;;23.75;15.30;;;19.30;92.80;;;;;;6369855;22;19998;-83
2022/10/27 02:04:27;;;;;;;23.33;14.95;;;19.30;92.80;;;;;;6361620;22;19999;-83
2022/10/27 02:06:56;;;;;;;19.35;14.70;;;19.30;92.70;;;;;;6324466;22;20094;-82
2022/10/27 02:09:34;;;;;;;21.35;14.35;;;19.30;92.70;;;;;;6363555;22;20410;-79
2022/10/27 02:12:03;;;;;;;22.40;14.88;;;19.30;92.70;;;;;;6369121;22;20002;-82
2022/10/27 02:14:30;;;;;;;23.93;14.47;;;19.30;92.70;;;;;;6369412;22;20055;-82
2022/10/27 02:16:57;;;;;;;25.33;15.43;;;19.20;92.90;;;;;;6369545;22;20034;-82
2022/10/27 02:19:34;;;;;;;21.00;14.55;;;19.20;92.60;;;;;;6369303;22;20018;-82
2022/10/27 02:22:02;;;;;;;23.67;14.95;;;19.30;92.60;;;;;;6368869;22;20002;-82
2022/10/27 02:24:29;;;;;;;24.08;15.82;;;19.20;92.60;;;;;;6369319;22;19995;-82
2022/10/27 02:27:04;;;;;;;20.50;14.00;;;19.20;92.60;;;;;;6369389;22;20022;-83
2022/10/27 02:29:45;;;;;;;20.95;13.70;;;19.20;92.60;;;;;;6368479;22;20044;-81
2022/10/27 02:32:15;;;;;;;22.98;13.32;;;19.20;92.60;;;;;;6368997;22;20018;-82
2022/10/27 02:34:43;;;;;;;17.42;11.85;;;19.20;92.50;;;;;;6369820;22;20429;-82
2022/10/27 02:37:15;;;;;;;17.63;12.05;;;19.20;92.50;;;;;;6368963;22;20320;-82
2022/10/27 02:39:41;;;;;;;15.70;11.45;;;19.20;92.40;;;;;;6341247;22;20085;-81
2022/10/27 02:42:07;;;;;;;27.58;12.05;;;19.20;92.30;;;;;;6369252;22;20034;-82
2022/10/27 02:44:32;;;;;;;15.90;11.93;;;19.10;92.20;;;;;;6369570;22;20002;-81
2022/10/27 02:46:58;;;;;;;17.77;11.93;;;19.20;92.20;;;;;;6370012;22;20177;-82
2022/10/27 02:49:24;;;;;;;18.50;11.48;;;19.10;92.10;;;;;;6369622;22;19994;-82
2022/10/27 02:51:49;;;;;;;18.13;12.32;;;19.10;92.10;;;;;;6367951;22;20027;-83
2022/10/27 02:54:15;;;;;;;16.65;11.80;;;19.10;92.10;;;;;;6369240;22;20026;-82
2022/10/27 02:56:41;;;;;;;18.27;12.55;;;19.10;92.10;;;;;;6369656;22;20316;-82
2022/10/27 02:59:06;;;;;;;16.02;11.13;;;19.00;92.10;;;;;;6341447;22;20017;-82
2022/10/27 03:01:32;;;;;;;16.13;11.02;;;19.00;92.10;;;;;;6368893;22;19998;-83
2022/10/27 03:03:58;;;;;;;15.38;11.10;;;19.00;92.10;;;;;;6368700;22;20022;-82
2022/10/27 03:06:23;;;;;;;18.40;10.38;;;19.00;92.20;;;;;;6368820;22;19998;-83
2022/10/27 03:08:49;;;;;;;15.68;10.27;;;19.00;92.20;;;;;;6368731;22;19995;-82
2022/10/27 03:11:15;;;;;;;12.75;9.45;;;19.00;92.10;;;;;;6369795;22;20037;-82
2022/10/27 03:13:40;;;;;;;12.73;9.00;;;18.90;92.10;;;;;;6369171;22;20003;-82
2022/10/27 03:16:07;;;;;;;14.20;8.88;;;19.00;92.00;;;;;;6369750;22;20034;-83
2022/10/27 03:18:32;;;;;;;12.02;8.10;;;18.90;92.00;;;;;;6364118;22;20151;-82
2022/10/27 03:20:58;;;;;;;11.13;8.13;;;18.90;92.00;;;;;;6369355;22;20585;-82
2022/10/27 03:23:24;;;;;;;11.40;8.07;;;18.90;91.90;;;;;;6369256;22;20421;-81
2022/10/27 03:25:49;;;;;;;9.40;7.50;;;18.90;91.80;;;;;;6369023;22;19994;-82
2022/10/27 03:28:15;;;;;;;10.07;7.53;;;18.90;91.80;;;;;;6368629;22;20002;-82
2022/10/27 03:30:41;;;;;;;14.27;8.02;;;18.80;91.70;;;;;;6368571;22;20329;-82
2022/10/27 03:33:06;;;;;;;9.18;8.10;;;18.80;91.70;;;;;;6368909;22;20002;-82
2022/10/27 03:35:32;;;;;;;9.30;7.28;;;18.80;91.80;;;;;;6369580;22;20034;-82
2022/10/27 03:37:59;;;;;;;14.77;8.55;;;18.80;91.80;;;;;;6369135;22;20002;-82
2022/10/27 03:40:31;;;;;;;12.70;7.43;;;18.80;91.90;;;;;;6370498;22;20002;-83
2022/10/27 03:42:57;;;;;;;11.13;7.72;;;18.70;91.70;;;;;;6375038;22;19998;-83
2022/10/27 03:45:27;;;;;;;10.57;7.32;;;18.70;91.80;;;;;;6370518;22;20005;-82
2022/10/27 03:48:00;;;;;;;15.57;8.40;;;18.70;91.70;;;;;;6370986;22;19998;-82
2022/10/27 03:50:26;;;;;;;11.88;8.32;;;18.70;91.70;;;;;;6375258;22;19999;-82
2022/10/27 03:52:52;;;;;;;10.45;7.32;;;18.70;91.70;;;;;;6379454;22;20020;-83
2022/10/27 03:55:17;;;;;;;11.95;7.70;;;18.60;91.60;;;;;;6372550;22;20012;-82
2022/10/27 03:57:43;;;;;;;11.48;8.27;;;18.50;91.70;;;;;;6373412;22;20002;-82
2022/10/27 04:00:09;;;;;;;11.18;7.95;;;18.50;91.80;;;;;;6374365;22;20072;-82
2022/10/27 04:02:35;;;;;;;16.92;9.50;;;18.50;91.90;;;;;;6373451;22;19998;-82
2022/10/27 04:05:01;;;;;;;10.10;7.60;;;18.40;91.90;;;;;;6344994;22;20324;-81
2022/10/27 04:07:26;;;;;;;13.10;7.90;;;18.30;92.00;;;;;;6372547;22;20039;-82
2022/10/27 04:09:52;;;;;;;10.30;8.13;;;18.30;92.10;;;;;;6372224;22;19994;-82
2022/10/27 04:12:17;;;;;;;11.52;7.90;;;18.30;92.20;;;;;;6372244;22;19998;-82
2022/10/27 04:14:43;;;;;;;11.13;7.82;;;18.30;92.20;;;;;;6372406;22;20005;-82
2022/10/27 04:17:09;;;;;;;13.85;8.00;;;18.40;92.20;;;;;;6372454;22;20399;-82
2022/10/27 04:19:34;;;;;;;13.88;8.38;;;18.40;92.10;;;;;;6370836;22;20002;-83
2022/10/27 04:22:00;;;;;;;12.38;8.43;;;18.40;92.10;;;;;;6371150;22;20009;-83
2022/10/27 04:24:26;;;;;;;12.23;8.55;;;18.40;92.10;;;;;;6369482;22;20032;-82
2022/10/27 04:26:51;;;;;;;15.70;9.48;;;18.40;92.00;;;;;;6369945;22;20320;-82
2022/10/27 04:29:17;;;;;;;11.85;7.55;;;18.40;92.00;;;;;;6370390;22;20033;-81
2022/10/27 04:31:43;;;;;;;13.63;8.68;;;18.30;92.00;;;;;;6370320;22;20021;-81
2022/10/27 04:34:08;;;;;;;10.60;7.93;;;18.30;92.10;;;;;;6341675;22;19998;-82
2022/10/27 04:36:34;;;;;;;13.35;8.77;;;18.30;92.20;;;;;;6370945;22;20029;-82
2022/10/27 04:39:00;;;;;;;12.00;8.43;;;18.30;92.20;;;;;;6342697;22;20006;-81
2022/10/27 04:41:25;;;;;;;12.05;7.93;;;18.30;92.10;;;;;;6370119;22;20373;-82
2022/10/27 04:43:51;;;;;;;12.63;7.88;;;18.30;92.10;;;;;;6342380;22;20011;-82
2022/10/27 04:46:17;;;;;;;11.85;9.18;;;18.40;92.10;;;;;;6359262;22;20051;-82
2022/10/27 04:48:43;;;;;;;16.23;8.93;;;18.40;92.10;;;;;;6368801;22;20051;-83
2022/10/27 04:51:08;;;;;;;12.48;8.85;;;18.40;92.00;;;;;;6370331;22;20001;-82
2022/10/27 04:53:34;;;;;;;12.00;8.38;;;18.30;92.00;;;;;;6369246;22;20008;-82
2022/10/27 04:55:59;;;;;;;12.55;8.60;;;18.30;92.10;;;;;;6370058;22;20028;-83
2022/10/27 04:58:25;;;;;;;13.98;8.93;;;18.30;92.10;;;;;;6368969;22;20028;-83
2022/10/27 05:00:51;;;;;;;13.63;8.95;;;18.30;92.20;;;;;;6370214;22;20527;-84
2022/10/27 05:03:17;;;;;;;11.75;7.90;;;18.30;92.20;;;;;;6368046;22;20007;-84
2022/10/27 05:05:42;;;;;;;14.45;8.98;;;18.30;92.20;;;;;;6369782;22;20006;-82
2022/10/27 05:08:14;;;;;;;15.32;8.90;;;18.30;92.20;;;;;;6369846;22;20055;-86
2022/10/27 05:10:40;;;;;;;14.75;9.20;;;18.30;92.30;;;;;;6370646;22;20026;-86
2022/10/27 05:13:06;;;;;;;12.63;9.25;;;18.30;92.30;;;;;;6370355;22;19998;-81
2022/10/27 05:15:32;;;;;;;15.25;9.05;;;18.30;92.30;;;;;;6370213;22;20073;-87
2022/10/27 05:17:57;;;;;;;14.75;9.43;;;18.30;92.30;;;;;;6369868;22;20081;-87
2022/10/27 05:20:23;;;;;;;23.35;10.13;;;18.30;92.30;;;;;;6369962;22;20002;-86
2022/10/27 05:22:49;;;;;;;12.80;9.05;;;18.30;92.30;;;;;;6370417;22;20055;-82
2022/10/27 05:25:15;;;;;;;12.30;9.30;;;18.30;92.30;;;;;;6371264;22;20001;-86
2022/10/27 05:27:41;;;;;;;13.32;9.18;;;18.30;92.30;;;;;;6369111;22;20000;-83
2022/10/27 05:30:08;;;;;;;11.52;9.00;;;18.30;92.30;;;;;;6371574;22;20260;-86
2022/10/27 05:32:35;;;;;;;12.73;9.35;;;18.20;92.40;;;;;;6369160;22;20093;-86
2022/10/27 05:35:01;;;;;;;16.60;10.02;;;18.20;92.40;;;;;;6342849;22;20003;-87
2022/10/27 05:37:26;;;;;;;15.82;9.43;;;18.20;92.40;;;;;;6369793;22;20040;-83
2022/10/27 05:39:52;;;;;;;12.48;8.93;;;18.20;92.40;;;;;;6369954;22;20069;-84
2022/10/27 05:42:17;;;;;;;14.40;9.55;;;18.30;92.40;;;;;;6341368;22;20336;-82
2022/10/27 05:44:43;;;;;;;14.52;9.52;;;18.30;92.40;;;;;;6369987;22;19995;-81
2022/10/27 05:47:09;;;;;;;12.27;9.30;;;18.30;92.30;;;;;;6370224;22;20401;-82
2022/10/27 05:49:35;;;;;;;14.25;10.05;;;18.30;92.40;;;;;;6368982;22;20005;-83
2022/10/27 05:52:00;;;;;;;14.80;9.13;;;18.30;92.40;;;;;;6369698;22;20005;-83
2022/10/27 05:54:26;;;;;;;16.83;10.40;;;18.30;92.40;;;;;;6370283;22;19998;-83
2022/10/27 05:56:52;;;;;;;15.18;10.13;;;18.30;92.40;;;;;;6369699;22;20026;-82
2022/10/27 05:59:19;;;;;;;17.25;10.57;;;18.30;92.40;;;;;;6368658;22;20002;-85
2022/10/27 06:01:44;;;;;;;16.05;9.45;;;18.30;92.50;;;;;;6369374;22;20006;-86
2022/10/27 06:04:10;;;;;;;15.27;9.75;;;18.30;92.50;;;;;;6370189;22;19999;-83
2022/10/27 06:06:36;;;;;;;20.08;10.27;;;18.30;92.50;;;;;;6369929;22;20006;-83
2022/10/27 06:09:01;;;;;;;16.75;10.88;;;18.30;92.50;;;;;;6368841;22;20412;-80
2022/10/27 06:11:27;;;;;;;17.45;11.15;;;18.20;92.60;;;;;;6370063;22;20026;-75
2022/10/27 06:13:53;;;;;;;17.17;9.77;;;18.20;92.70;;;;;;6340754;22;20013;-75
2022/10/27 06:16:19;;;;;;;14.00;9.48;;;18.20;92.70;;;;;;6368116;22;19998;-74
2022/10/27 06:18:45;;;;;;;17.98;9.88;;;18.20;92.80;;;;;;6370655;22;20115;-75
2022/10/27 06:21:10;;;;;;;17.73;10.43;;;18.10;92.80;;;;;;6370522;22;20030;-77
2022/10/27 06:23:36;;;;;;;19.25;10.15;;;18.10;93.00;;;;;;6370524;22;20005;-77
2022/10/27 06:26:02;;;;;;;14.93;9.98;;;18.10;93.10;;;;;;6370605;22;20000;-77
2022/10/27 06:28:28;;;;;;;14.15;8.95;;;18.20;93.10;;;;;;6370174;22;19999;-77
2022/10/27 06:30:54;;;;;;;14.20;9.18;;;18.30;93.10;;;;;;6376653;22;20106;-79
2022/10/27 06:33:19;;;;;;;15.65;10.23;;;18.30;93.10;;;;;;6370675;22;20008;-79
2022/10/27 06:35:46;;;;;;;17.40;10.40;;;18.40;93.00;;;;;;6370301;22;20021;-76
2022/10/27 06:38:15;;;;;;;15.50;8.93;;;18.50;92.90;;;;;;6341698;22;20328;-74
2022/10/27 06:40:45;;;;;;;20.83;9.68;;;18.50;92.70;;;;;;6369759;22;20037;-74
2022/10/27 06:43:12;;;;;;;13.65;10.15;;;18.60;92.70;;;;;;6370408;22;20002;-74
2022/10/27 06:45:39;;;;;;;15.20;9.55;;;18.60;92.60;;;;;;6371373;22;20022;-75
2022/10/27 06:48:07;;;;;;;15.52;9.65;;;18.50;92.60;;;;;;6342363;22;20030;-84
2022/10/27 06:50:33;;;;;;;13.10;9.38;;;18.50;92.60;;;;;;6369573;22;20024;-74
2022/10/27 06:53:00;;;;;;;12.52;9.15;;;18.50;92.60;;;;;;6369772;22;20006;-75
2022/10/27 06:55:27;;;;;;;14.60;9.38;;;18.50;92.70;;;;;;6369493;22;20425;-75
2022/10/27 06:57:53;;;;;;;16.58;9.55;;;18.50;92.70;;;;;;6369716;22;20003;-82
2022/10/27 07:00:20;;;;;;;12.50;9.23;;;18.50;93.00;;;;;;6369262;22;20048;-82
2022/10/27 07:02:46;;;;;;;12.38;9.05;;;18.50;92.70;;;;;;6368928;22;20013;-74
2022/10/27 07:05:13;;;;;;;13.40;8.38;;;18.50;92.80;;;;;;6369586;22;20444;-74
2022/10/27 07:07:39;;;;;;;11.02;8.50;;;18.50;92.80;;;;;;6344974;22;19998;-74
2022/10/27 07:10:07;;;;;;;14.98;9.00;;;18.50;92.80;;;;;;6368607;22;20010;-74
2022/10/27 07:12:33;;;;;;;15.75;8.93;;;18.60;92.90;;;;;;6368011;22;20420;-73
2022/10/27 07:14:59;;;;;;;14.20;9.88;;;18.60;92.80;;;;;;6370439;22;20005;-83
2022/10/27 07:17:25;;;;;;;17.60;10.05;;;18.70;92.80;;;;;;6368976;22;20458;-74
2022/10/27 07:19:51;;;;;;;12.95;10.30;;;18.70;92.80;;;;;;6368641;22;20026;-72
2022/10/27 07:22:17;;;;;;;17.20;10.13;;;18.70;92.80;;;;;;6368393;22;20005;-73
2022/10/27 07:24:42;;;;;;;14.23;10.13;;;18.80;92.80;;;;;;6340667;22;20006;-73
2022/10/27 07:27:08;;;;;;;16.92;10.77;;;18.80;92.80;;;;;;6369981;22;20417;-84
2022/10/27 07:29:34;;;;;;;20.60;11.20;;;18.90;92.80;;;;;;6343059;22;20006;-74
2022/10/27 07:32:01;;;;;;;16.35;11.40;;;18.90;92.80;;;;;;6362573;22;20015;-82
2022/10/27 07:34:27;;;;;;;18.90;11.55;;;19.00;92.80;;;;;;6365974;22;20547;-83
2022/10/27 07:36:52;;;;;;;16.10;11.48;;;19.10;92.80;;;;;;6373981;22;19998;-83
2022/10/27 07:39:18;;;;;;;16.75;10.77;;;19.10;92.70;;;;;;6376942;22;19990;-83
2022/10/27 07:41:44;;;;;;;20.50;11.18;;;19.10;92.70;;;;;;6370342;22;20044;-74
2022/10/27 07:44:10;;;;;;;16.95;10.77;;;19.10;92.70;;;;;;6370732;22;20023;-83
2022/10/27 07:46:36;;;;;;;18.02;10.70;;;19.10;92.70;;;;;;6370600;22;20070;-82
2022/10/27 07:49:05;;;;;;;17.33;10.23;;;19.10;92.70;;;;;;6370589;22;20077;-74
2022/10/27 07:51:31;;;;;;;13.52;9.80;;;19.10;92.70;;;;;;6341798;22;20002;-74
2022/10/27 07:53:56;;;;;;;13.35;9.90;;;19.20;92.80;;;;;;6370787;22;20451;-75
2022/10/27 07:56:22;;;;;;;12.73;9.60;;;19.30;92.80;;;;;;6370969;22;20308;-74
2022/10/27 07:58:48;;;;;;;14.48;9.57;;;19.40;92.70;;;;;;6370661;22;20003;-75
2022/10/27 08:01:14;;;;;;;15.30;10.00;;;19.40;92.60;;;;;;6343374;22;20428;-75
2022/10/27 08:03:40;;;;;;;14.38;9.77;;;19.50;92.50;;;;;;6373632;22;20006;-73
2022/10/27 08:06:05;;;;;;;15.23;9.60;;;19.60;92.40;;;;;;6370748;22;19998;-73
2022/10/27 08:08:32;;;;;;;17.67;9.40;;;19.60;92.20;;;;;;6370788;22;20493;-74
2022/10/27 08:10:57;;;;;;;15.23;9.05;;;19.70;92.30;;;;;;6371753;22;20003;-75
2022/10/27 08:13:23;;;;;;;11.52;8.98;;;19.80;92.20;;;;;;6365410;22;20055;-81
2022/10/27 08:15:49;;;;;;;12.32;9.48;;;19.90;92.10;;;;;;6371883;22;20014;-82
2022/10/27 08:18:15;;;;;;;16.58;9.95;;;20.00;91.90;;;;;;6372147;22;19998;-80
2022/10/27 08:20:46;;;;;;;15.48;9.70;;;20.00;91.90;;;;;;6371981;22;20360;-81
2022/10/27 08:23:14;;;;;;;24.88;10.68;;;20.10;91.90;;;;;;6371363;22;20584;-80
2022/10/27 08:25:41;;;;;;;15.88;10.50;;;20.20;91.80;;;;;;6372275;22;20029;-81
2022/10/27 08:28:09;;;;;;;17.67;10.48;;;20.30;91.80;;;;;;6370707;22;20060;-81
2022/10/27 08:30:35;;;;;;;17.58;10.95;;;20.40;91.70;;;;;;6371010;22;20007;-82
2022/10/27 08:33:02;;;;;;;27.65;12.02;;;20.60;91.60;;;;;;6372225;22;20328;-78
2022/10/27 08:35:30;;;;;;;17.48;11.55;;;20.70;91.30;;;;;;6371348;22;20003;-77
2022/10/27 08:38:01;;;;;;;18.02;11.07;;;20.70;91.10;;;;;;6371314;22;20002;-78
2022/10/27 08:40:34;;;;;;;21.60;11.52;;;20.80;90.90;;;;;;6371450;22;20078;-79
2022/10/27 08:43:25;;;;;;;13.98;9.73;;;20.90;91.10;;;;;;6342624;22;20354;-78
2022/10/27 08:46:05;;;;;;;14.27;8.32;;;21.10;91.10;;;;;;6370428;22;19995;-78
2022/10/27 08:48:33;;;;;;;13.88;9.02;;;21.30;91.00;;;;;;6372314;22;19994;-84
2022/10/27 08:51:00;;;;;;;13.38;9.35;;;21.60;90.80;;;;;;6371695;22;19999;-83
2022/10/27 08:53:30;;;;;;;12.90;8.77;;;21.80;90.50;;;;;;6371392;22;20045;-82
2022/10/27 08:55:57;;;;;;;;;;;22.00;90.20;;;;;;6373096;22;20026;-81
2022/10/27 08:58:32;;;;;;;15.35;8.57;;;22.20;89.80;;;;;;6372433;22;19920;-78
2022/10/27 09:01:16;;;;;;;11.35;8.30;;;22.30;87.40;;;;;;6371388;22;20006;-78
2022/10/27 09:03:57;;;;;;;11.15;7.15;;;22.40;88.00;;;;;;6374659;22;20006;-82
2022/10/27 09:06:55;;;;;;;12.35;7.25;;;22.50;88.00;;;;;;6344246;22;20002;-87
2022/10/27 09:09:52;;;;;;;11.50;7.95;;;22.70;87.60;;;;;;6356298;22;20002;-88
2022/10/27 09:12:46;;;;;;;11.30;6.78;;;22.90;87.10;;;;;;6369849;22;20327;-88
2022/10/27 09:15:23;;;;;;;9.57;7.50;;;23.00;86.30;;;;;;6371095;22;20003;-84
2022/10/27 09:17:59;;;;;;;51.70;11.32;;;23.10;84.30;;;;;;6370165;22;20003;-84
2022/10/27 09:20:37;;;;;;;18.40;7.88;;;23.20;82.80;;;;;;6369873;22;20014;-83
2022/10/27 09:23:09;;;;;;;11.75;7.45;;;23.20;84.50;;;;;;6342432;22;20002;-84
2022/10/27 09:25:38;;;;;;;11.63;7.03;;;23.30;84.80;;;;;;6370682;22;20495;-84
2022/10/27 09:28:04;;;;;;;11.77;6.55;;;23.50;84.80;;;;;;6370391;22;20005;-83
2022/10/27 09:30:36;;;;;;;10.30;7.03;;;23.60;84.50;;;;;;6370968;22;20006;-84
2022/10/27 09:33:08;;;;;;;11.70;6.40;;;23.80;84.00;;;;;;6370278;22;20002;-84
2022/10/27 09:35:33;;;;;;;9.05;5.97;;;24.00;83.70;;;;;;6370924;22;20044;-84
2022/10/27 09:37:59;;;;;;;9.02;6.05;;;24.10;83.30;;;;;;6371096;22;20481;-84
2022/10/27 09:40:30;;;;;;;10.20;7.00;;;24.30;82.80;;;;;;6370527;22;20425;-84
2022/10/27 09:42:56;;;;;;;9.60;5.43;;;24.40;82.30;;;;;;6370538;22;20002;-84
2022/10/27 09:45:25;;;;;;;8.10;5.47;;;24.60;82.10;;;;;;6370417;22;20013;-85
2022/10/27 09:47:58;;;;;;;6.78;5.43;;;24.80;81.50;;;;;;6369914;22;20002;-84
2022/10/27 09:50:35;;;;;;;8.18;5.75;;;24.90;80.90;;;;;;6369892;22;19998;-84
2022/10/27 09:53:02;;;;;;;7.88;4.30;;;25.00;80.40;;;;;;6342759;22;20013;-85
2022/10/27 09:55:51;;;;;;;6.60;4.57;;;25.10;79.80;;;;;;6370639;22;20010;-83
2022/10/27 09:58:18;;;;;;;6.93;4.70;;;25.20;78.70;;;;;;6370503;22;20031;-84
2022/10/27 10:00:43;;;;;;;9.77;5.22;;;25.30;79.00;;;;;;6369233;22;20017;-84
2022/10/27 10:03:20;;;;;;;12.88;5.43;;;25.30;76.80;;;;;;6370527;22;20003;-86
2022/10/27 10:05:56;;;;;;;6.63;4.57;;;25.40;78.40;;;;;;6370903;22;19998;-86
2022/10/27 10:08:25;;;;;;;6.20;4.43;;;25.50;78.40;;;;;;6342055;22;20463;-84
2022/10/27 10:11:03;;;;;;;6.72;4.72;;;25.60;78.00;;;;;;6370040;22;20040;-85
2022/10/27 10:13:36;;;;;;;7.82;4.95;;;25.70;77.20;;;;;;6370163;22;20052;-85
2022/10/27 10:16:13;;;;;;;6.22;4.57;;;25.80;77.60;;;;;;6342134;22;20002;-84
2022/10/27 10:18:42;;;;;;;7.35;4.25;;;26.00;76.30;;;;;;6371091;22;20006;-84
2022/10/27 10:21:10;;;;;;;7.28;5.07;;;26.10;75.30;;;;;;6370239;22;20026;-83
2022/10/27 10:23:48;;;;;;;10.02;4.20;;;26.20;75.40;;;;;;6370505;22;19998;-83
2022/10/27 10:26:20;;;;;;;6.07;4.10;;;26.30;74.60;;;;;;6371521;22;20001;-85
2022/10/27 10:28:51;;;;;;;6.55;4.00;;;26.40;74.60;;;;;;6372394;22;20053;-85
2022/10/27 10:31:35;;;;;;;5.65;3.50;;;26.50;74.30;;;;;;6343298;22;20006;-87
2022/10/27 10:34:03;;;;;;;8.60;4.32;;;26.60;73.00;;;;;;6371492;22;20349;-86
2022/10/27 10:36:36;;;;;;;9.85;4.07;;;26.70;73.40;;;;;;6371192;22;19998;-84
2022/10/27 10:39:19;;;;;;;6.05;3.38;;;26.70;73.00;;;;;;6372287;22;20306;-85
2022/10/27 10:42:05;;;;;;;7.47;3.35;;;26.80;72.90;;;;;;6372394;22;20009;-85
2022/10/27 10:44:30;;;;;;;5.10;3.45;;;26.90;72.60;;;;;;6370180;22;20006;-85
2022/10/27 10:46:57;;;;;;;4.25;3.03;;;27.00;72.50;;;;;;6369946;22;20311;-85
2022/10/27 10:49:25;;;;;;;6.18;3.20;;;27.00;72.10;;;;;;6368845;22;20012;-88
2022/10/27 10:52:00;;;;;;;7.22;3.03;;;27.10;71.80;;;;;;6368340;22;20015;-86
2022/10/27 10:54:40;;;;;;;4.95;2.95;;;27.30;71.60;;;;;;6370533;22;20293;-85
2022/10/27 10:57:44;;;;;;;4.80;3.58;;;27.40;71.20;;;;;;6370055;22;20030;-80
2022/10/27 11:00:30;;;;;;;8.27;3.58;;;27.60;70.40;;;;;;6370332;22;20005;-88
2022/10/27 11:03:14;;;;;;;7.97;4.32;;;27.60;70.00;;;;;;6345101;22;20350;-85
2022/10/27 11:05:40;;;;;;;8.60;4.80;;;27.70;67.30;;;;;;6371340;22;20354;-85
2022/10/27 11:08:22;;;;;;;9.38;4.55;;;27.40;68.40;;;;;;6372768;22;20022;-84
2022/10/27 11:10:49;;;;;;;7.25;3.67;;;27.40;67.50;;;;;;6372095;22;20002;-83
2022/10/27 11:13:19;;;;;;;5.95;3.80;;;27.50;69.10;;;;;;6372305;22;20026;-85
2022/10/27 11:15:55;;;;;;;4.75;3.45;;;27.70;69.30;;;;;;6371080;22;20408;-83
2022/10/27 11:18:37;;;;;;;5.78;3.85;;;27.90;69.00;;;;;;6372340;22;20002;-85
2022/10/27 11:21:29;;;;;;;4.70;3.60;;;28.20;68.70;;;;;;6371361;22;19998;-84
2022/10/27 11:24:07;;;;;;;5.63;4.40;;;28.80;68.60;;;;;;6372349;22;20048;-85
2022/10/27 11:26:38;;;;;;;10.20;6.05;;;29.60;67.00;;;;;;6371838;22;20096;-84
2022/10/27 11:29:17;;;;;;;7.65;4.68;;;30.80;62.20;;;;;;6372634;22;20008;-80
2022/10/27 11:31:48;;;;;;;5.53;4.15;;;31.60;61.90;;;;;;6371396;22;20014;-80
2022/10/27 11:34:44;;;;;;;6.75;4.93;;;32.50;60.70;;;;;;6369310;22;20014;-82
2022/10/27 11:37:43;;;;;;;7.65;4.80;;;33.50;58.00;;;;;;6371077;22;20062;-82
2022/10/27 11:40:34;;;;;;;6.23;5.23;;;34.30;55.60;;;;;;6320469;22;20023;-83
2022/10/27 11:43:11;;;;;;;7.70;5.80;;;34.50;53.80;;;;;;6371718;22;20236;-83
2022/10/27 11:45:49;;;;;;;9.02;4.93;;;34.80;53.00;;;;;;6345577;22;20002;-87
2022/10/27 11:48:28;;;;;;;7.70;5.20;;;35.20;51.80;;;;;;6373291;22;20001;-85
2022/10/27 11:51:10;;;;;;;7.13;5.30;;;35.70;51.20;;;;;;6373282;22;20119;-87
2022/10/27 11:53:36;;;;;;;8.85;5.47;;;35.90;49.90;;;;;;6349526;22;20006;-81
2022/10/27 11:56:16;;;;;;;6.57;4.30;;;36.20;49.70;;;;;;6374133;22;20511;-84
2022/10/27 11:59:33;;;;;;;7.00;4.68;;;36.50;48.60;;;;;;6372556;22;20022;-81
2022/10/27 12:02:29;;;;;;;6.05;4.00;;;36.50;48.00;;;;;;6331790;22;20110;-84
2022/10/27 12:05:09;;;;;;;7.00;4.13;;;36.30;47.50;;;;;;6371989;22;19998;-83
2022/10/27 12:07:53;;;;;;;5.05;3.78;;;36.00;47.50;;;;;;6380282;22;20081;-85
2022/10/27 12:10:23;;;;;;;8.63;3.70;;;35.60;47.50;;;;;;6372677;22;19999;-82
2022/10/27 12:13:11;;;;;;;6.22;3.83;;;35.20;48.20;;;;;;6371283;22;20073;-82
2022/10/27 12:15:46;;;;;;;8.40;4.30;;;35.00;48.70;;;;;;6373931;22;20069;-92
2022/10/27 12:18:27;;;;;;;7.35;4.00;;;35.00;48.30;;;;;;6372942;22;20069;-86
2022/10/27 12:21:15;;;;;;;4.72;3.60;;;34.90;49.00;;;;;;6374071;22;20003;-80
2022/10/27 12:24:02;;;;;;;6.63;3.45;;;34.90;48.90;;;;;;6342908;22;20128;-82
2022/10/27 12:26:41;;;;;;;5.78;3.50;;;34.90;49.20;;;;;;6371280;22;20514;-82
2022/10/27 12:29:08;;;;;;;10.70;4.90;;;34.90;49.10;;;;;;6370958;22;20002;-83
2022/10/27 12:31:44;;;;;;;5.68;4.57;;;34.90;48.80;;;;;;6370110;22;20002;-85
2022/10/27 12:34:18;;;;;;;5.60;4.20;;;34.90;48.60;;;;;;6342739;22;20017;-85
2022/10/27 12:37:20;;;;;;;10.65;5.07;;;34.90;48.50;;;;;;6342120;22;20089;-85
2022/10/27 12:39:57;;;;;;;6.10;4.03;;;34.80;48.50;;;;;;6367994;22;20018;-84
2022/10/27 12:43:02;;;;;;;7.82;4.70;;;34.60;48.90;;;;;;6370020;22;19995;-84
2022/10/27 12:45:35;;;;;;;6.68;4.18;;;34.60;48.70;;;;;;6281803;22;20424;-84
2022/10/27 12:48:06;;;;;;;5.05;3.90;;;34.60;48.30;;;;;;6370321;22;19994;-78
2022/10/27 12:51:05;;;;;;;6.05;4.05;;;34.70;48.40;;;;;;6367463;22;20002;-85
2022/10/27 12:53:47;;;;;;;8.02;4.60;;;34.30;48.20;;;;;;6370996;22;20342;-82